Time;durP1;ratioP1;P1;durP2;ratioP2;P2;SDS_P1;SDS_P2;PMS_P1;PMS_P2;Temp;Humidity;BMP_temperature;BMP_pressure;BME280_temperature;BME280_humidity;BME280_pressure;Samples;Min_cycle;Max_cycle;Signal;HPM_P1;HPM_P2
2023/07/26 00:01:07;;;;;;;9.35;3.75;;;17.30;99.40;;;;;;5041533;28;20050;-89
2023/07/26 00:03:33;;;;;;;8.25;3.47;;;17.30;99.80;;;;;;5025193;28;20032;-91
2023/07/26 00:06:00;;;;;;;6.38;3.58;;;17.30;99.70;;;;;;5058954;28;20020;-90
2023/07/26 00:08:26;;;;;;;8.98;4.05;;;17.30;99.80;;;;;;5042372;28;20051;-90
2023/07/26 00:10:52;;;;;;;6.80;3.80;;;17.30;99.90;;;;;;5041859;28;20072;-90
2023/07/26 00:13:17;;;;;;;6.43;4.10;;;17.30;99.90;;;;;;5025522;28;20017;-90
2023/07/26 00:15:44;;;;;;;7.22;4.20;;;17.30;99.90;;;;;;5058261;28;20087;-90
2023/07/26 00:18:09;;;;;;;7.53;4.55;;;17.30;99.90;;;;;;5058810;28;20029;-90
2023/07/26 00:20:35;;;;;;;6.75;4.30;;;17.20;99.90;;;;;;5041860;28;20169;-90
2023/07/26 00:23:02;;;;;;;6.57;4.22;;;17.20;99.90;;;;;;5026876;28;20062;-93
2023/07/26 00:25:28;;;;;;;8.52;4.28;;;17.20;99.90;;;;;;5060862;28;20020;-93
2023/07/26 00:27:54;;;;;;;6.93;4.55;;;17.20;99.90;;;;;;5043902;28;20033;-93
2023/07/26 00:30:20;;;;;;;6.28;4.18;;;17.20;99.90;;;;;;5059951;28;20032;-93
2023/07/26 00:32:45;;;;;;;7.50;4.15;;;17.10;99.90;;;;;;5059755;28;20473;-92
2023/07/26 00:35:24;;;;;;;9.40;4.40;;;17.10;99.90;;;;;;5059263;28;20033;-93
2023/07/26 00:37:50;;;;;;;10.73;5.43;;;17.00;99.90;;;;;;5042837;28;20111;-92
2023/07/26 00:40:16;;;;;;;11.25;4.95;;;17.00;99.90;;;;;;5041353;28;20068;-90
2023/07/26 00:42:41;;;;;;;8.32;5.22;;;16.90;99.90;;;;;;5057617;28;20093;-91
2023/07/26 00:45:07;;;;;;;9.68;5.20;;;16.90;99.90;;;;;;5041217;28;20037;-90
2023/07/26 00:47:33;;;;;;;7.82;5.22;;;16.80;99.90;;;;;;5024922;28;20430;-91
2023/07/26 00:49:59;;;;;;;7.15;5.32;;;16.80;99.90;;;;;;5024940;28;20037;-91
2023/07/26 00:52:25;;;;;;;7.47;4.68;;;16.80;99.90;;;;;;5024288;28;20024;-90
2023/07/26 00:58:51;;;;;;;6.90;4.40;;;16.80;99.90;;;;;;5071259;28;20036;-90
2023/07/26 01:01:22;;;;;;;7.35;4.95;;;16.80;99.90;;;;;;5047205;28;20051;-90
2023/07/26 01:03:48;;;;;;;7.18;4.40;;;16.80;99.90;;;;;;5040691;28;20119;-90
2023/07/26 01:06:46;;;;;;;8.90;5.45;;;16.70;99.90;;;;;;5040565;28;20056;-90
2023/07/26 01:09:35;;;;;;;5.05;4.10;;;16.70;99.90;;;;;;5056940;28;20028;-89
2023/07/26 01:12:09;;;;;;;8.57;4.55;;;16.70;99.90;;;;;;5058519;28;20020;-90
2023/07/26 01:14:56;;;;;;;6.85;4.63;;;16.70;99.90;;;;;;5062515;28;20456;-90
2023/07/26 01:17:22;;;;;;;6.28;4.57;;;16.60;99.90;;;;;;5060967;28;20046;-90
2023/07/26 01:19:47;;;;;;;8.63;4.88;;;16.60;99.90;;;;;;5057166;28;20063;-91
2023/07/26 01:22:13;;;;;;;7.10;4.97;;;16.60;99.90;;;;;;5040696;28;20473;-91
2023/07/26 01:24:39;;;;;;;6.70;4.53;;;16.60;99.90;;;;;;5040366;28;20021;-91
2023/07/26 01:27:05;;;;;;;10.63;5.30;;;16.50;99.90;;;;;;5040510;28;20362;-90
2023/07/26 01:29:31;;;;;;;5.97;4.78;;;16.50;99.90;;;;;;5040234;28;20029;-90
2023/07/26 01:31:57;;;;;;;7.00;4.93;;;16.40;99.90;;;;;;5040701;28;20077;-90
2023/07/26 01:34:23;;;;;;;7.90;5.40;;;16.40;99.90;;;;;;5056904;28;20381;-90
2023/07/26 01:36:52;;;;;;;7.13;4.82;;;16.30;99.90;;;;;;5023983;28;20029;-90
2023/07/26 01:39:18;;;;;;;6.43;4.80;;;16.30;99.90;;;;;;5056869;28;20033;-90
2023/07/26 01:41:45;;;;;;;8.05;5.20;;;16.30;99.90;;;;;;5023814;28;20120;-91
2023/07/26 01:44:12;;;;;;;8.95;5.30;;;16.20;99.90;;;;;;5040288;28;20032;-90
2023/07/26 01:46:37;;;;;;;7.78;5.38;;;16.20;99.90;;;;;;5040805;28;20086;-94
2023/07/26 01:49:03;;;;;;;6.28;4.70;;;16.10;99.90;;;;;;5024296;28;20032;-94
2023/07/26 01:51:29;;;;;;;8.27;4.53;;;16.10;99.90;;;;;;5024562;28;20028;-93
2023/07/26 01:53:55;;;;;;;6.30;4.80;;;16.10;99.90;;;;;;5024174;28;20523;-94
2023/07/26 01:56:20;;;;;;;8.13;4.28;;;16.00;99.90;;;;;;5040448;28;20024;-94
2023/07/26 01:58:49;;;;;;;7.38;4.43;;;16.00;99.90;;;;;;5040321;28;20044;-94
2023/07/26 02:01:18;;;;;;;6.63;4.70;;;15.90;99.90;;;;;;5023843;28;20025;-93
2023/07/26 02:03:47;;;;;;;5.95;3.85;;;15.90;99.90;;;;;;5043762;28;20452;-90
2023/07/26 02:06:15;;;;;;;6.07;4.20;;;15.90;99.90;;;;;;5027280;28;20115;-89
2023/07/26 02:08:41;;;;;;;6.32;4.03;;;15.90;99.90;;;;;;5027547;28;20482;-90
2023/07/26 02:11:07;;;;;;;6.18;4.72;;;15.90;99.90;;;;;;5027222;28;20055;-90
2023/07/26 02:13:32;;;;;;;5.43;4.32;;;15.90;99.90;;;;;;5027370;28;20020;-89
2023/07/26 02:15:58;;;;;;;5.70;4.53;;;15.90;99.90;;;;;;5043620;28;20025;-90
2023/07/26 02:18:25;;;;;;;10.30;4.70;;;15.90;99.90;;;;;;5027101;28;20016;-90
2023/07/26 02:20:50;;;;;;;5.70;4.30;;;15.90;99.90;;;;;;5060237;28;20421;-89
2023/07/26 02:23:16;;;;;;;9.05;4.75;;;15.80;99.90;;;;;;5060272;28;20059;-89
2023/07/26 02:25:42;;;;;;;7.63;4.65;;;15.80;99.90;;;;;;5043439;28;20355;-90
2023/07/26 02:28:07;;;;;;;6.28;4.80;;;15.80;99.90;;;;;;5060198;28;20047;-90
2023/07/26 02:30:33;;;;;;;6.78;4.63;;;15.70;99.90;;;;;;5043503;28;20040;-89
2023/07/26 02:32:59;;;;;;;7.28;5.20;;;15.70;99.90;;;;;;5043538;28;20101;-90
2023/07/26 02:35:24;;;;;;;6.13;4.63;;;15.70;99.90;;;;;;5027503;28;20536;-95
2023/07/26 02:37:50;;;;;;;6.35;4.70;;;15.70;99.90;;;;;;5061909;28;20112;-94
2023/07/26 02:40:16;;;;;;;7.47;5.05;;;15.60;99.90;;;;;;5044997;28;20058;-94
2023/07/26 02:42:42;;;;;;;7.95;5.10;;;15.60;99.90;;;;;;5028368;28;20028;-93
2023/07/26 02:45:08;;;;;;;11.07;5.47;;;15.50;99.90;;;;;;5044234;28;20024;-93
2023/07/26 02:47:34;;;;;;;7.55;5.57;;;15.50;99.90;;;;;;5044143;28;20043;-94
2023/07/26 02:50:01;;;;;;;9.35;5.57;;;15.50;99.90;;;;;;5027950;28;20037;-95
2023/07/26 02:52:27;;;;;;;7.25;5.93;;;15.50;99.90;;;;;;5049478;28;20025;-89
2023/07/26 02:54:53;;;;;;;9.23;5.88;;;15.50;99.90;;;;;;5047176;28;20036;-89
2023/07/26 02:57:19;;;;;;;7.10;5.70;;;15.50;99.90;;;;;;5044031;28;20029;-90
2023/07/26 02:59:46;;;;;;;8.48;6.10;;;15.50;99.90;;;;;;5027302;28;20498;-90
2023/07/26 03:02:12;;;;;;;8.68;6.93;;;15.40;99.90;;;;;;5043980;28;20028;-90
2023/07/26 03:04:37;;;;;;;7.75;6.38;;;15.40;99.90;;;;;;5060492;28;20350;-90
2023/07/26 03:07:03;;;;;;;10.38;6.97;;;15.40;99.90;;;;;;5027381;28;20032;-93
2023/07/26 03:09:29;;;;;;;8.63;6.50;;;15.40;99.90;;;;;;5043286;28;20067;-90
2023/07/26 03:11:54;;;;;;;8.73;7.28;;;15.40;99.90;;;;;;5027187;28;20058;-91
2023/07/26 03:14:20;;;;;;;9.55;6.72;;;15.30;99.90;;;;;;5059095;28;20021;-90
2023/07/26 03:16:46;;;;;;;9.23;6.78;;;15.30;99.90;;;;;;5026246;28;20484;-90
2023/07/26 03:19:30;;;;;;;8.30;7.10;;;15.30;99.90;;;;;;5026485;28;20086;-91
2023/07/26 03:21:56;;;;;;;9.98;7.57;;;15.30;99.90;;;;;;5043030;28;20029;-90
2023/07/26 03:24:21;;;;;;;7.95;6.85;;;15.30;99.90;;;;;;5026733;28;20028;-90
2023/07/26 03:26:47;;;;;;;9.05;7.68;;;15.20;99.90;;;;;;5028581;28;20029;-95
2023/07/26 03:29:13;;;;;;;9.38;7.55;;;15.20;99.90;;;;;;5027844;28;20477;-90
2023/07/26 03:31:38;;;;;;;9.90;7.60;;;15.20;99.90;;;;;;5042711;28;20032;-87
2023/07/26 03:34:04;;;;;;;9.20;7.40;;;15.20;99.90;;;;;;5026654;28;20075;-90
2023/07/26 03:36:30;;;;;;;11.85;7.03;;;15.20;99.90;;;;;;5026988;28;20028;-90
2023/07/26 03:38:59;;;;;;;9.43;7.45;;;15.10;99.90;;;;;;5043566;28;20063;-89
2023/07/26 03:41:24;;;;;;;9.63;7.68;;;15.10;99.90;;;;;;5042085;28;20393;-90
2023/07/26 03:43:50;;;;;;;10.65;7.93;;;15.10;99.90;;;;;;5043339;28;20032;-90
2023/07/26 03:46:18;;;;;;;9.57;7.22;;;15.10;99.90;;;;;;5063582;28;20016;-90
2023/07/26 03:48:44;;;;;;;10.90;8.40;;;15.00;99.90;;;;;;5049181;28;20086;-90
2023/07/26 03:51:10;;;;;;;9.30;7.90;;;15.00;99.90;;;;;;5049589;28;20020;-90
2023/07/26 03:53:35;;;;;;;11.32;8.60;;;15.00;99.90;;;;;;5033210;28;20025;-91
2023/07/26 03:56:01;;;;;;;11.48;8.43;;;15.00;99.90;;;;;;5080235;28;20021;-90
2023/07/26 03:58:27;;;;;;;10.55;7.25;;;15.00;99.90;;;;;;5042085;28;20032;-90
2023/07/26 04:00:52;;;;;;;10.70;7.47;;;14.90;99.90;;;;;;5058400;28;20056;-89
2023/07/26 04:03:18;;;;;;;8.27;7.35;;;14.90;99.90;;;;;;5025041;28;20040;-91
2023/07/26 04:05:44;;;;;;;10.93;8.35;;;14.90;99.90;;;;;;5025042;28;20031;-89
2023/07/26 04:08:09;;;;;;;11.88;8.50;;;14.90;99.90;;;;;;5025281;28;20039;-90
2023/07/26 04:10:35;;;;;;;10.93;8.23;;;14.90;99.90;;;;;;5042006;28;20051;-91
2023/07/26 04:13:01;;;;;;;8.75;7.05;;;14.90;99.90;;;;;;5025066;28;20021;-90
2023/07/26 04:15:28;;;;;;;10.43;8.30;;;14.90;99.90;;;;;;5041738;28;20462;-90
2023/07/26 04:17:54;;;;;;;11.40;7.20;;;14.80;99.90;;;;;;5042079;28;20112;-90
2023/07/26 04:20:19;;;;;;;10.23;8.50;;;14.80;99.90;;;;;;5025040;28;20045;-91
2023/07/26 04:22:45;;;;;;;9.80;7.22;;;14.80;99.90;;;;;;5041388;28;20517;-91
2023/07/26 04:25:11;;;;;;;10.88;9.02;;;14.80;99.90;;;;;;5040619;28;20066;-90
2023/07/26 04:27:36;;;;;;;13.98;8.35;;;14.80;99.90;;;;;;5041609;28;20039;-90
2023/07/26 04:30:03;;;;;;;12.95;9.35;;;14.80;99.90;;;;;;5041423;28;20607;-90
2023/07/26 04:32:29;;;;;;;9.05;8.02;;;14.80;99.90;;;;;;5044165;28;20021;-92
2023/07/26 04:34:54;;;;;;;11.75;9.07;;;14.80;99.90;;;;;;5058416;28;20185;-93
2023/07/26 04:37:22;;;;;;;10.43;8.50;;;14.80;99.90;;;;;;5058496;28;20473;-91
2023/07/26 04:39:50;;;;;;;11.77;8.95;;;14.80;99.90;;;;;;5070478;28;20020;-92
2023/07/26 04:42:17;;;;;;;11.68;8.55;;;14.90;99.90;;;;;;5044710;28;20028;-92
2023/07/26 04:44:43;;;;;;;12.25;9.18;;;14.80;99.90;;;;;;5062742;28;20074;-92
2023/07/26 04:47:08;;;;;;;12.82;8.55;;;14.90;99.90;;;;;;5028233;28;20328;-92
2023/07/26 04:49:41;;;;;;;11.35;9.32;;;14.90;99.90;;;;;;5054638;28;20016;-93
2023/07/26 04:52:13;;;;;;;11.60;8.85;;;14.90;99.90;;;;;;5058915;28;20063;-94
2023/07/26 04:54:39;;;;;;;12.18;8.40;;;14.90;99.90;;;;;;5026071;28;20028;-93
2023/07/26 04:57:04;;;;;;;11.45;8.90;;;14.90;99.90;;;;;;5042391;28;20381;-94
2023/07/26 04:59:30;;;;;;;11.25;8.77;;;14.80;99.90;;;;;;5035290;28;20368;-93
2023/07/26 05:01:56;;;;;;;11.15;9.48;;;14.80;99.90;;;;;;5019793;28;20021;-93
2023/07/26 05:04:22;;;;;;;10.95;8.85;;;14.90;99.90;;;;;;5003071;28;20033;-94
2023/07/26 05:06:48;;;;;;;12.30;9.18;;;14.80;99.90;;;;;;5018946;28;20025;-96
2023/07/26 05:09:14;;;;;;;9.80;8.38;;;14.80;99.90;;;;;;5002122;28;20053;-95
2023/07/26 05:11:40;;;;;;;13.63;8.73;;;14.80;99.90;;;;;;5002831;28;20034;-95
2023/07/26 05:14:06;;;;;;;11.52;8.77;;;14.90;99.90;;;;;;5001817;28;20459;-93
2023/07/26 05:16:32;;;;;;;13.75;9.68;;;14.90;99.90;;;;;;5001690;28;20032;-94
2023/07/26 05:18:58;;;;;;;11.88;9.15;;;14.80;99.90;;;;;;5001788;28;20091;-93
2023/07/26 05:21:25;;;;;;;12.02;9.18;;;14.80;99.90;;;;;;5018310;28;20112;-92
2023/07/26 05:23:51;;;;;;;11.68;9.30;;;14.80;99.90;;;;;;5017413;28;20025;-91
2023/07/26 05:26:16;;;;;;;13.35;9.77;;;14.80;99.90;;;;;;5033920;28;20075;-91
2023/07/26 05:28:42;;;;;;;13.43;9.75;;;14.80;99.90;;;;;;5017445;28;20041;-91
2023/07/26 05:31:08;;;;;;;14.38;9.88;;;14.90;99.90;;;;;;5001120;28;20021;-90
2023/07/26 05:33:33;;;;;;;12.85;10.38;;;14.90;99.90;;;;;;5017253;28;20026;-91
2023/07/26 05:35:59;;;;;;;11.68;9.50;;;14.90;99.90;;;;;;5000334;28;20029;-90
2023/07/26 05:38:25;;;;;;;11.82;9.88;;;15.00;99.90;;;;;;5016745;28;20061;-92
2023/07/26 05:40:50;;;;;;;12.27;9.38;;;15.00;99.90;;;;;;5017945;28;20040;-93
2023/07/26 05:43:20;;;;;;;14.38;9.77;;;15.00;99.90;;;;;;5017457;28;20029;-92
2023/07/26 05:45:45;;;;;;;12.13;9.50;;;15.00;99.90;;;;;;5034434;28;20044;-91
2023/07/26 05:48:11;;;;;;;10.70;9.23;;;15.00;99.90;;;;;;5033118;28;20025;-91
2023/07/26 05:50:37;;;;;;;12.65;9.30;;;15.00;99.90;;;;;;5033268;28;20032;-91
2023/07/26 05:53:02;;;;;;;14.50;9.40;;;15.10;99.90;;;;;;5017328;28;20045;-89
2023/07/26 05:55:28;;;;;;;14.73;9.38;;;15.10;99.90;;;;;;5033379;28;20025;-91
2023/07/26 05:57:54;;;;;;;13.65;9.50;;;15.10;99.90;;;;;;5034341;28;20463;-92
2023/07/26 06:00:19;;;;;;;13.43;9.23;;;15.20;99.90;;;;;;5034701;28;20072;-92
2023/07/26 06:02:46;;;;;;;12.10;9.40;;;15.20;99.90;;;;;;5055836;28;20402;-93
2023/07/26 06:05:11;;;;;;;13.65;10.13;;;15.20;99.90;;;;;;5056221;28;20029;-92
2023/07/26 06:07:37;;;;;;;12.32;9.20;;;15.20;99.90;;;;;;5056183;28;20048;-93
2023/07/26 06:10:03;;;;;;;14.73;10.13;;;15.30;99.90;;;;;;5072173;28;20025;-92
2023/07/26 06:12:29;;;;;;;13.73;10.63;;;15.30;99.90;;;;;;5054696;28;20494;-90
2023/07/26 06:14:55;;;;;;;17.05;10.95;;;15.30;99.90;;;;;;5052883;28;20021;-90
2023/07/26 06:17:21;;;;;;;14.15;10.25;;;15.30;99.90;;;;;;5036623;28;20057;-90
2023/07/26 06:19:47;;;;;;;11.10;9.90;;;15.40;99.90;;;;;;5036635;28;20067;-91
2023/07/26 06:22:13;;;;;;;14.10;11.45;;;15.40;99.90;;;;;;5052966;28;20021;-90
2023/07/26 06:24:40;;;;;;;13.75;10.15;;;15.40;99.90;;;;;;5055816;28;20060;-90
2023/07/26 06:27:06;;;;;;;14.20;11.23;;;15.50;99.90;;;;;;5066397;28;20040;-92
2023/07/26 06:29:33;;;;;;;15.27;10.55;;;15.60;99.90;;;;;;5040654;28;20036;-94
2023/07/26 06:31:59;;;;;;;17.55;10.65;;;15.60;99.90;;;;;;5038767;28;20482;-94
2023/07/26 06:34:24;;;;;;;14.68;11.32;;;15.70;99.90;;;;;;5054364;28;20020;-94
2023/07/26 06:36:50;;;;;;;17.00;11.18;;;15.80;99.90;;;;;;5037920;28;20025;-94
2023/07/26 06:39:16;;;;;;;12.48;10.55;;;15.80;99.90;;;;;;5037944;28;20036;-94
2023/07/26 06:41:41;;;;;;;16.05;11.07;;;15.80;99.90;;;;;;5053618;28;20029;-89
2023/07/26 06:44:07;;;;;;;19.23;11.45;;;15.80;99.90;;;;;;5036432;28;20032;-89
2023/07/26 06:46:33;;;;;;;16.83;11.25;;;15.80;99.90;;;;;;5053527;28;20033;-94
2023/07/26 06:49:01;;;;;;;14.10;11.43;;;15.80;99.90;;;;;;5067004;28;20112;-93
2023/07/26 06:51:27;;;;;;;14.88;10.85;;;15.80;99.90;;;;;;5021503;28;20029;-93
2023/07/26 06:53:53;;;;;;;18.58;13.13;;;15.90;99.90;;;;;;5022294;28;20055;-93
2023/07/26 06:56:18;;;;;;;14.60;11.00;;;15.90;99.90;;;;;;5023565;28;20032;-93
2023/07/26 06:58:44;;;;;;;16.85;11.77;;;15.90;99.90;;;;;;5017885;28;20058;-93
2023/07/26 07:01:17;;;;;;;17.25;11.43;;;16.00;99.90;;;;;;5002776;28;20459;-94
2023/07/26 07:03:43;;;;;;;18.63;11.20;;;16.00;99.90;;;;;;5010421;28;20049;-89
2023/07/26 07:06:08;;;;;;;15.40;10.65;;;16.00;99.90;;;;;;5036264;28;20018;-89
2023/07/26 07:08:34;;;;;;;16.38;12.48;;;16.00;99.90;;;;;;5038961;28;20026;-89
2023/07/26 07:11:00;;;;;;;15.57;11.85;;;16.10;99.90;;;;;;5022246;28;20499;-89
2023/07/26 07:13:26;;;;;;;15.20;11.32;;;16.10;99.90;;;;;;5043355;28;20030;-89
2023/07/26 07:15:51;;;;;;;18.58;11.93;;;16.10;99.90;;;;;;5010818;28;20032;-89
2023/07/26 07:18:20;;;;;;;17.40;12.43;;;16.10;99.90;;;;;;5024648;28;20030;-89
2023/07/26 07:20:53;;;;;;;18.83;12.70;;;16.10;99.90;;;;;;5033702;28;20057;-89
2023/07/26 07:23:19;;;;;;;19.40;12.10;;;16.00;99.90;;;;;;5033210;28;20041;-90
2023/07/26 07:25:56;;;;;;;17.40;11.75;;;16.00;99.90;;;;;;5032991;28;20398;-90
2023/07/26 07:28:22;;;;;;;19.40;13.25;;;16.00;99.90;;;;;;5032828;28;20026;-90
2023/07/26 07:30:49;;;;;;;20.45;14.20;;;16.00;99.90;;;;;;5016485;28;20030;-90
2023/07/26 07:33:20;;;;;;;19.08;13.35;;;16.00;99.90;;;;;;5032823;28;20032;-89
2023/07/26 07:35:46;;;;;;;17.60;12.73;;;16.00;99.90;;;;;;5033395;28;20044;-89
2023/07/26 07:38:12;;;;;;;15.82;11.95;;;16.00;99.90;;;;;;5032574;28;20475;-89
2023/07/26 07:40:41;;;;;;;18.20;10.65;;;15.90;99.90;;;;;;5032427;28;20040;-89
2023/07/26 07:43:06;;;;;;;16.42;7.65;;;15.80;99.90;;;;;;5032383;28;20120;-89
2023/07/26 07:45:37;;;;;;;9.40;4.03;;;15.80;99.90;;;;;;5032459;28;20054;-89
2023/07/26 07:48:03;;;;;;;6.15;3.15;;;15.70;99.90;;;;;;5032629;28;20056;-89
2023/07/26 07:50:29;;;;;;;7.13;3.63;;;15.50;99.90;;;;;;5015726;28;20785;-89
2023/07/26 07:52:54;;;;;;;6.65;3.28;;;15.40;99.90;;;;;;5015637;28;20045;-89
2023/07/26 07:55:20;;;;;;;7.65;3.58;;;15.20;99.90;;;;;;5032406;28;20015;-89
2023/07/26 07:57:46;;;;;;;5.10;3.53;;;15.10;99.90;;;;;;5032546;28;20120;-89
2023/07/26 08:00:12;;;;;;;6.20;3.67;;;15.00;99.90;;;;;;5048008;28;20491;-87
2023/07/26 08:02:37;;;;;;;8.65;4.45;;;15.00;99.90;;;;;;5035441;28;20060;-88
2023/07/26 08:05:03;;;;;;;7.35;3.50;;;14.90;99.90;;;;;;5018567;28;20029;-89
2023/07/26 08:07:29;;;;;;;6.18;3.75;;;14.90;99.90;;;;;;5035236;28;20079;-88
2023/07/26 08:09:55;;;;;;;8.30;3.63;;;14.90;99.90;;;;;;5051607;28;20132;-88
2023/07/26 08:12:21;;;;;;;7.85;4.07;;;14.80;99.90;;;;;;5035641;28;20402;-88
2023/07/26 08:14:50;;;;;;;7.60;4.50;;;14.80;99.90;;;;;;5052216;28;20028;-88
2023/07/26 08:17:16;;;;;;;7.93;4.43;;;14.70;99.90;;;;;;5052161;28;20115;-88
2023/07/26 08:19:41;;;;;;;9.20;4.60;;;14.70;99.90;;;;;;5051903;28;20474;-88
2023/07/26 08:22:07;;;;;;;7.53;3.97;;;14.80;99.90;;;;;;5051839;28;20029;-88
2023/07/26 08:24:33;;;;;;;9.82;4.05;;;14.80;99.90;;;;;;5052125;28;20116;-89
2023/07/26 08:26:59;;;;;;;5.15;3.75;;;14.80;99.90;;;;;;5054299;28;20029;-90
2023/07/26 08:29:24;;;;;;;6.63;4.20;;;14.80;99.90;;;;;;5036993;28;20025;-91
2023/07/26 08:31:50;;;;;;;7.57;4.78;;;14.80;99.90;;;;;;5036971;28;20375;-90
2023/07/26 08:34:16;;;;;;;8.82;5.78;;;14.90;99.90;;;;;;5036864;28;20108;-90
2023/07/26 08:36:41;;;;;;;12.93;6.43;;;14.90;99.90;;;;;;5036472;28;20043;-91
2023/07/26 08:39:07;;;;;;;9.48;5.97;;;15.00;99.90;;;;;;5036639;28;20029;-90
2023/07/26 08:41:35;;;;;;;7.35;4.88;;;15.00;99.90;;;;;;5036373;28;20030;-87
2023/07/26 08:44:04;;;;;;;6.90;4.03;;;15.10;99.90;;;;;;5034781;28;20078;-89
2023/07/26 08:46:30;;;;;;;5.50;3.50;;;15.10;99.90;;;;;;5035201;28;20394;-89
2023/07/26 08:48:57;;;;;;;3.90;3.13;;;15.20;99.90;;;;;;5035322;28;20025;-89
2023/07/26 08:51:25;;;;;;;5.15;3.00;;;15.20;99.90;;;;;;5034027;28;20398;-89
2023/07/26 08:53:52;;;;;;;7.43;3.10;;;15.20;99.90;;;;;;5034208;28;20022;-88
2023/07/26 08:56:19;;;;;;;6.18;3.55;;;15.20;99.90;;;;;;5050600;28;20081;-93
2023/07/26 08:58:44;;;;;;;6.03;3.50;;;15.30;99.90;;;;;;5051687;28;20058;-89
2023/07/26 09:01:10;;;;;;;8.63;4.75;;;15.30;99.90;;;;;;5034263;28;20018;-88
2023/07/26 09:03:36;;;;;;;6.40;4.10;;;15.40;99.90;;;;;;5035358;28;20093;-89
2023/07/26 09:06:06;;;;;;;10.52;5.55;;;15.50;99.90;;;;;;5033797;28;20041;-89
2023/07/26 09:08:32;;;;;;;8.10;5.72;;;15.50;99.90;;;;;;5033913;28;20029;-88
2023/07/26 09:10:58;;;;;;;10.38;7.18;;;15.60;99.90;;;;;;5033808;28;20030;-87
2023/07/26 09:13:24;;;;;;;10.55;8.40;;;15.70;99.90;;;;;;5033599;28;20057;-88
2023/07/26 09:16:00;;;;;;;11.45;8.73;;;15.70;99.90;;;;;;5037717;28;20029;-90
2023/07/26 09:18:28;;;;;;;10.07;8.90;;;15.80;99.90;;;;;;5055374;28;20029;-90
2023/07/26 09:21:01;;;;;;;13.50;9.25;;;15.80;99.90;;;;;;5041481;28;20021;-90
2023/07/26 09:23:27;;;;;;;12.52;9.48;;;15.90;99.90;;;;;;5042430;28;20490;-90
2023/07/26 09:25:53;;;;;;;12.25;9.70;;;16.00;99.90;;;;;;5041954;28;20124;-90
2023/07/26 09:28:21;;;;;;;15.40;10.40;;;16.00;99.90;;;;;;5043150;28;20025;-90
2023/07/26 09:30:48;;;;;;;17.85;10.75;;;16.10;99.90;;;;;;5035688;28;20076;-91
2023/07/26 09:33:16;;;;;;;16.95;11.70;;;16.20;99.90;;;;;;5034801;28;20036;-93
2023/07/26 09:35:47;;;;;;;12.45;10.65;;;16.30;99.90;;;;;;5051912;28;20021;-92
2023/07/26 09:38:13;;;;;;;;;;;16.40;99.90;;;;;;5036536;28;20029;-92
2023/07/26 09:40:39;;;;;;;14.75;10.95;;;16.40;99.90;;;;;;5040333;28;19923;-92
2023/07/26 09:43:06;;;;;;;13.23;9.88;;;16.50;99.90;;;;;;5041292;28;20033;-92
2023/07/26 09:45:32;;;;;;;15.68;10.60;;;16.60;99.90;;;;;;5038826;28;20445;-92
2023/07/26 09:48:08;;;;;;;14.98;10.43;;;16.70;99.90;;;;;;5036517;28;20064;-93
2023/07/26 09:50:35;;;;;;;15.82;10.02;;;16.70;99.90;;;;;;5034497;28;20053;-92
2023/07/26 09:53:04;;;;;;;15.98;10.60;;;16.80;99.90;;;;;;5041478;28;20017;-92
2023/07/26 09:55:30;;;;;;;15.25;9.45;;;16.90;99.90;;;;;;5057813;28;20017;-92
2023/07/26 09:57:56;;;;;;;14.80;10.30;;;17.00;99.90;;;;;;5057952;28;20017;-90
2023/07/26 10:00:26;;;;;;;14.00;9.73;;;17.10;99.90;;;;;;5057523;28;20117;-90
2023/07/26 10:02:58;;;;;;;14.70;10.25;;;17.20;99.90;;;;;;5052353;28;20021;-92
2023/07/26 10:05:34;;;;;;;14.30;9.95;;;17.20;99.90;;;;;;5034721;28;20026;-90
2023/07/26 10:08:00;;;;;;;14.73;9.82;;;17.30;99.90;;;;;;5033480;28;20036;-91
2023/07/26 10:10:28;;;;;;;14.27;9.15;;;17.30;99.90;;;;;;5033162;28;20029;-90
2023/07/26 10:12:57;;;;;;;14.73;9.35;;;17.30;99.90;;;;;;5033244;28;20412;-91
2023/07/26 10:15:25;;;;;;;14.07;9.75;;;17.40;99.90;;;;;;5033357;28;20036;-90
2023/07/26 10:17:52;;;;;;;14.07;9.60;;;17.40;99.90;;;;;;5034326;28;20030;-90
2023/07/26 10:20:19;;;;;;;12.88;8.85;;;17.40;99.90;;;;;;5033350;28;20026;-91
2023/07/26 10:22:47;;;;;;;12.48;9.20;;;17.50;99.90;;;;;;5042327;28;20010;-91
2023/07/26 10:25:12;;;;;;;16.60;10.18;;;17.50;99.90;;;;;;5038992;28;20046;-89
2023/07/26 10:27:39;;;;;;;12.98;9.32;;;17.50;99.90;;;;;;5027173;28;20022;-89
2023/07/26 10:30:06;;;;;;;13.90;10.23;;;17.50;99.90;;;;;;5016615;28;20036;-91
2023/07/26 10:32:32;;;;;;;16.65;10.57;;;17.50;99.90;;;;;;5038491;28;20060;-91
2023/07/26 10:35:01;;;;;;;16.15;11.52;;;17.50;99.90;;;;;;5039445;28;20025;-89
2023/07/26 10:37:35;;;;;;;16.35;11.73;;;17.50;99.90;;;;;;5040300;28;20063;-89
2023/07/26 10:40:29;;;;;;;15.77;10.57;;;17.50;99.90;;;;;;5038010;28;20471;-88
2023/07/26 10:42:55;;;;;;;11.48;7.35;;;17.50;99.90;;;;;;5036727;28;20143;-88
2023/07/26 10:45:43;;;;;;;12.77;6.97;;;17.60;99.90;;;;;;5036979;28;20125;-89
2023/07/26 10:48:38;;;;;;;17.75;9.00;;;17.60;99.90;;;;;;5036705;28;20034;-88
2023/07/26 10:51:22;;;;;;;20.10;8.43;;;17.50;99.90;;;;;;5036478;28;20021;-88
2023/07/26 10:53:48;;;;;;;10.88;6.72;;;17.50;99.90;;;;;;5036468;28;20120;-89
2023/07/26 10:56:27;;;;;;;10.65;6.50;;;17.50;99.90;;;;;;5053568;28;20087;-89
2023/07/26 10:59:04;;;;;;;11.23;6.85;;;17.40;99.90;;;;;;5036476;28;20049;-89
2023/07/26 11:01:44;;;;;;;12.15;6.70;;;17.40;99.90;;;;;;5036406;28;20022;-89
2023/07/26 11:04:19;;;;;;;9.73;5.97;;;17.40;99.90;;;;;;5037289;28;20468;-89
2023/07/26 11:06:48;;;;;;;10.80;6.75;;;17.40;99.90;;;;;;5036415;28;20017;-90
2023/07/26 11:09:25;;;;;;;10.05;6.75;;;17.40;99.90;;;;;;5036456;28;20379;-88
2023/07/26 11:11:58;;;;;;;13.48;7.70;;;17.50;99.90;;;;;;5038729;28;20322;-92
2023/07/26 11:14:32;;;;;;;10.10;6.80;;;17.60;99.90;;;;;;5036912;28;20026;-92
2023/07/26 11:17:07;;;;;;;14.38;8.27;;;17.70;99.90;;;;;;5036660;28;20055;-92
2023/07/26 11:19:47;;;;;;;12.55;8.02;;;17.70;99.90;;;;;;5037025;28;20026;-93
2023/07/26 11:22:13;;;;;;;14.57;8.75;;;17.80;99.90;;;;;;5037298;28;20022;-92
2023/07/26 11:24:39;;;;;;;12.23;8.32;;;17.90;99.90;;;;;;5037045;28;20092;-92
2023/07/26 11:27:06;;;;;;;11.60;7.40;;;17.90;99.90;;;;;;5036557;28;20014;-91
2023/07/26 11:29:33;;;;;;;13.60;8.15;;;18.00;99.90;;;;;;5051020;28;20017;-93
2023/07/26 11:31:59;;;;;;;11.88;7.85;;;18.00;99.90;;;;;;5060047;28;20030;-93
2023/07/26 11:34:25;;;;;;;13.18;7.55;;;18.10;99.90;;;;;;5058285;28;20025;-93
2023/07/26 11:36:54;;;;;;;13.23;7.43;;;18.20;99.90;;;;;;5058175;28;20025;-93
2023/07/26 11:39:23;;;;;;;12.57;8.05;;;18.20;99.90;;;;;;5039629;28;20029;-91
2023/07/26 11:41:50;;;;;;;12.75;7.60;;;18.30;99.90;;;;;;5038970;28;20430;-92
2023/07/26 11:44:19;;;;;;;14.98;7.68;;;18.40;99.90;;;;;;5037391;28;20020;-92
2023/07/26 11:46:45;;;;;;;10.23;7.10;;;18.40;99.90;;;;;;5036788;28;20079;-90
2023/07/26 11:49:21;;;;;;;12.10;7.47;;;18.40;99.90;;;;;;5036056;28;20085;-90
2023/07/26 11:51:48;;;;;;;10.40;6.68;;;18.40;99.90;;;;;;5035964;28;20030;-90
2023/07/26 11:54:15;;;;;;;9.65;5.22;;;18.40;99.90;;;;;;5035726;28;20036;-89
2023/07/26 11:56:41;;;;;;;8.23;4.50;;;18.50;99.90;;;;;;5035563;28;20030;-91
2023/07/26 11:59:08;;;;;;;7.97;4.32;;;18.50;99.90;;;;;;5046381;28;20036;-90
2023/07/26 12:01:36;;;;;;;8.18;3.92;;;18.60;99.90;;;;;;5042514;28;20021;-90
2023/07/26 12:04:09;;;;;;;8.15;4.38;;;18.70;99.90;;;;;;5058909;28;20021;-90
2023/07/26 12:06:35;;;;;;;8.38;4.25;;;18.80;99.90;;;;;;5059249;28;20031;-90
2023/07/26 12:09:14;;;;;;;7.80;3.65;;;18.90;99.90;;;;;;5043413;28;20086;-88
2023/07/26 12:12:00;;;;;;;6.78;3.47;;;19.00;99.90;;;;;;5043521;28;20031;-90
2023/07/26 12:14:31;;;;;;;6.80;3.05;;;19.00;99.90;;;;;;5042823;28;20078;-90
2023/07/26 12:16:57;;;;;;;7.28;3.30;;;19.00;99.90;;;;;;5042331;28;20525;-90
2023/07/26 12:19:24;;;;;;;5.82;3.17;;;19.00;99.90;;;;;;5060329;28;20059;-91
2023/07/26 12:21:50;;;;;;;4.47;3.00;;;19.10;99.90;;;;;;5060402;28;20036;-90
2023/07/26 12:24:17;;;;;;;5.65;3.33;;;19.10;99.90;;;;;;5058143;28;20362;-90
2023/07/26 12:26:46;;;;;;;5.75;2.95;;;19.20;99.90;;;;;;5058611;28;20033;-90
2023/07/26 12:29:15;;;;;;;4.97;2.97;;;19.20;99.90;;;;;;5058355;28;20084;-90
2023/07/26 12:31:41;;;;;;;5.82;2.75;;;19.20;99.90;;;;;;5058607;28;20024;-90
2023/07/26 12:34:08;;;;;;;4.80;2.92;;;19.30;99.90;;;;;;5042367;28;20029;-90
2023/07/26 12:36:37;;;;;;;8.02;3.15;;;19.40;99.90;;;;;;5042457;28;20111;-91
2023/07/26 12:39:07;;;;;;;5.85;3.35;;;19.40;99.90;;;;;;5058342;28;20033;-89
2023/07/26 12:41:37;;;;;;;5.47;2.78;;;19.40;99.90;;;;;;5041546;28;20029;-89
2023/07/26 12:44:06;;;;;;;4.25;2.40;;;19.40;99.90;;;;;;5057770;28;20424;-89
2023/07/26 12:46:36;;;;;;;6.50;3.00;;;19.50;99.90;;;;;;5041670;28;20044;-89